This is the latest recevied weather packets stored in our database for station/object W0CHP-13. If no packets are shown the sender has not sent any weather packets the latest 1 day(s).
| Time | Temp. | Humidity | Pressure | Rain* | Wind** | Luminosity | Snow |
|---|---|---|---|---|---|---|---|
| 1778017397 | 13.33° C | 26% | 1008.5 hPa | 0 mm | 0.89 m/s, 304° | 153 W/m² | - |
| 1778016795 | 13.33° C | 26% | 1008.7 hPa | 0 mm | 1.34 m/s, 278° | 252 W/m² | - |
| 1778016197 | 13.33° C | 25% | 1008.5 hPa | 0 mm | 1.34 m/s, 226° | 171 W/m² | - |
| 1778015595 | 13.33° C | 26% | 1008.5 hPa | 0 mm | 1.34 m/s, 1° | 190 W/m² | - |
| 1778014997 | 13.89° C | 25% | 1008.5 hPa | 0 mm | 0.45 m/s, 208° | 194 W/m² | - |
| 1778014396 | 13.89° C | 25% | 1008.4 hPa | 0 mm | 1.34 m/s, 340° | 690 W/m² | - |
| 1778013798 | 13.89° C | 25% | 1008.7 hPa | 0 mm | 0.89 m/s, 321° | 331 W/m² | - |
| 1778013196 | 14.44° C | 26% | 1008.7 hPa | 0 mm | 1.34 m/s, 307° | 212 W/m² | - |
| 1778012598 | 13.33° C | 26% | 1008.9 hPa | 0 mm | 1.34 m/s, 61° | 795 W/m² | - |
| 1778011996 | 13.89° C | 25% | 1008.5 hPa | 0 mm | 0.45 m/s, 31° | 234 W/m² | - |
| 1778011399 | 14.44° C | 24% | 1008.9 hPa | 0 mm | 0.45 m/s, 253° | 209 W/m² | - |
| 1778010797 | 14.44° C | 25% | 1008.7 hPa | 0 mm | 1.79 m/s, 300° | 834 W/m² | - |
| 1778010195 | 14.44° C | 23% | 1008.9 hPa | 0 mm | 1.79 m/s, 295° | 333 W/m² | - |
| 1778009597 | 13.89° C | 25% | 1008.9 hPa | 0 mm | 0.45 m/s, 292° | 755 W/m² | - |
| 1778008995 | 14.44° C | 24% | 1008.9 hPa | 0 mm | 0.89 m/s, 345° | 280 W/m² | - |
| 1778008397 | 13.89° C | 26% | 1008.9 hPa | 0 mm | 0.89 m/s, 310° | 989 W/m² | - |
| 1778007796 | 13.89° C | 24% | 1008.9 hPa | 0 mm | 1.34 m/s, 277° | 266 W/m² | - |
| 1778007198 | 13.89° C | 26% | 1008.9 hPa | 0 mm | 0.89 m/s, 248° | 661 W/m² | - |
| 1778006596 | 14.44° C | 24% | 1008.9 hPa | 0 mm | 0.89 m/s, 246° | 322 W/m² | - |
| 1778005998 | 14.44° C | 24% | 1008.9 hPa | 0 mm | 0.89 m/s, 253° | 790 W/m² | - |
| 1778005396 | 13.89° C | 27% | 1008.9 hPa | 0 mm | 0.89 m/s, 322° | 887 W/m² | - |
| 1778004799 | 14.44° C | 24% | 1008.5 hPa | 0 mm | 1.34 m/s, 278° | 268 W/m² | - |
| 1778004197 | 13.33° C | 27% | 1008.7 hPa | 0 mm | 1.34 m/s, 299° | 532 W/m² | - |
| 1778003595 | 13.89° C | 24% | 1008.7 hPa | 0 mm | 1.34 m/s, 246° | 478 W/m² | - |
| 1778002997 | 14.44° C | 24% | 1008.9 hPa | 0 mm | 1.34 m/s, 304° | 721 W/m² | - |
* Rain latest hour (hover to see other rain measurements)
** Current wind speed in m/s (hover to see current wind gust speed)